sensor_id;sensor_type;location;lat;lon;timestamp;pressure;altitude;pressure_sealevel;temperature;humidity
84841;BME280;75088;53.114;18.040;2024-03-29T00:00:47;99395.39;;;8.97;64.02
84841;BME280;75088;53.114;18.040;2024-03-29T00:02:13;99397.62;;;8.93;63.68
84841;BME280;75088;53.114;18.040;2024-03-29T00:03:19;99403.88;;;8.91;64.09
84841;BME280;75088;53.114;18.040;2024-03-29T00:04:26;99404.83;;;8.88;64.15
84841;BME280;75088;53.114;18.040;2024-03-29T00:05:32;99405.75;;;8.86;63.93
84841;BME280;75088;53.114;18.040;2024-03-29T00:06:41;99408.64;;;8.84;64.22
84841;BME280;75088;53.114;18.040;2024-03-29T00:07:47;99412.42;;;8.81;63.98
84841;BME280;75088;53.114;18.040;2024-03-29T00:08:53;99415.67;;;8.79;64.48
84841;BME280;75088;53.114;18.040;2024-03-29T00:10:00;99422.64;;;8.76;64.18
84841;BME280;75088;53.114;18.040;2024-03-29T00:11:06;99423.02;;;8.75;64.31
84841;BME280;75088;53.114;18.040;2024-03-29T00:12:15;99421.86;;;8.73;64.34
84841;BME280;75088;53.114;18.040;2024-03-29T00:13:21;99425.80;;;8.71;64.28
84841;BME280;75088;53.114;18.040;2024-03-29T00:14:27;99431.54;;;8.68;64.83
84841;BME280;75088;53.114;18.040;2024-03-29T00:15:34;99435.67;;;8.66;64.57
84841;BME280;75088;53.114;18.040;2024-03-29T00:16:40;99438.55;;;8.64;64.30
84841;BME280;75088;53.114;18.040;2024-03-29T00:17:46;99444.97;;;8.62;64.97
84841;BME280;75088;53.114;18.040;2024-03-29T00:18:53;99445.39;;;8.59;64.90
84841;BME280;75088;53.114;18.040;2024-03-29T00:19:59;99445.23;;;8.58;64.74
84841;BME280;75088;53.114;18.040;2024-03-29T00:21:05;99445.29;;;8.56;64.55
84841;BME280;75088;53.114;18.040;2024-03-29T00:22:14;99452.23;;;8.54;64.66
84841;BME280;75088;53.114;18.040;2024-03-29T00:23:20;99453.35;;;8.52;64.97
84841;BME280;75088;53.114;18.040;2024-03-29T00:24:26;99455.14;;;8.51;64.86
84841;BME280;75088;53.114;18.040;2024-03-29T00:25:32;99458.89;;;8.48;65.21
84841;BME280;75088;53.114;18.040;2024-03-29T00:26:39;99460.88;;;8.47;64.84
84841;BME280;75088;53.114;18.040;2024-03-29T00:27:45;99460.23;;;8.45;65.18
84841;BME280;75088;53.114;18.040;2024-03-29T00:28:53;99466.12;;;8.43;65.04
84841;BME280;75088;53.114;18.040;2024-03-29T00:30:00;99472.70;;;8.41;65.27
84841;BME280;75088;53.114;18.040;2024-03-29T00:31:06;99475.04;;;8.40;65.57
84841;BME280;75088;53.114;18.040;2024-03-29T00:32:15;99476.46;;;8.39;65.32
84841;BME280;75088;53.114;18.040;2024-03-29T00:33:21;99477.55;;;8.38;65.00
84841;BME280;75088;53.114;18.040;2024-03-29T00:34:28;99480.58;;;8.37;65.29
84841;BME280;75088;53.114;18.040;2024-03-29T00:35:35;99481.65;;;8.37;65.35
84841;BME280;75088;53.114;18.040;2024-03-29T00:36:41;99484.52;;;8.35;65.15
84841;BME280;75088;53.114;18.040;2024-03-29T00:37:48;99484.00;;;8.34;65.38
84841;BME280;75088;53.114;18.040;2024-03-29T00:38:54;99489.69;;;8.34;65.41
84841;BME280;75088;53.114;18.040;2024-03-29T00:40:00;99483.85;;;8.33;65.52
84841;BME280;75088;53.114;18.040;2024-03-29T00:41:07;99488.29;;;8.33;65.53
84841;BME280;75088;53.114;18.040;2024-03-29T00:42:13;99486.69;;;8.31;65.63
84841;BME280;75088;53.114;18.040;2024-03-29T00:43:20;99497.85;;;8.31;65.34
84841;BME280;75088;53.114;18.040;2024-03-29T00:44:27;99498.42;;;8.29;65.80
84841;BME280;75088;53.114;18.040;2024-03-29T00:45:33;99497.92;;;8.28;65.62
84841;BME280;75088;53.114;18.040;2024-03-29T00:46:39;99504.64;;;8.28;65.70
84841;BME280;75088;53.114;18.040;2024-03-29T00:47:45;99510.16;;;8.26;65.69
84841;BME280;75088;53.114;18.040;2024-03-29T00:48:52;99509.66;;;8.24;65.61
84841;BME280;75088;53.114;18.040;2024-03-29T00:49:58;99517.64;;;8.24;65.50
84841;BME280;75088;53.114;18.040;2024-03-29T00:51:05;99513.42;;;8.22;65.79
84841;BME280;75088;53.114;18.040;2024-03-29T00:52:11;99515.40;;;8.21;65.71
84841;BME280;75088;53.114;18.040;2024-03-29T00:53:17;99517.95;;;8.19;65.75
84841;BME280;75088;53.114;18.040;2024-03-29T00:54:24;99519.04;;;8.17;65.87
84841;BME280;75088;53.114;18.040;2024-03-29T00:55:30;99524.55;;;8.16;66.01
84841;BME280;75088;53.114;18.040;2024-03-29T00:56:36;99526.52;;;8.15;65.64
84841;BME280;75088;53.114;18.040;2024-03-29T00:57:42;99528.83;;;8.14;65.83
84841;BME280;75088;53.114;18.040;2024-03-29T00:58:49;99528.87;;;8.12;65.68
84841;BME280;75088;53.114;18.040;2024-03-29T00:59:55;99530.30;;;8.11;65.80
84841;BME280;75088;53.114;18.040;2024-03-29T01:01:02;99529.63;;;8.09;66.05
84841;BME280;75088;53.114;18.040;2024-03-29T01:02:08;99533.91;;;8.08;65.89
84841;BME280;75088;53.114;18.040;2024-03-29T01:03:14;99539.95;;;8.06;66.11
84841;BME280;75088;53.114;18.040;2024-03-29T01:04:20;99541.75;;;8.04;66.34
84841;BME280;75088;53.114;18.040;2024-03-29T01:05:27;99540.71;;;8.03;66.23
84841;BME280;75088;53.114;18.040;2024-03-29T01:06:33;99544.98;;;8.02;65.97
84841;BME280;75088;53.114;18.040;2024-03-29T01:07:41;99547.32;;;8.00;65.89
84841;BME280;75088;53.114;18.040;2024-03-29T01:08:47;99541.68;;;7.99;66.40
84841;BME280;75088;53.114;18.040;2024-03-29T01:09:54;99539.80;;;7.96;66.31
84841;BME280;75088;53.114;18.040;2024-03-29T01:11:00;99547.04;;;7.96;66.22
84841;BME280;75088;53.114;18.040;2024-03-29T01:12:06;99547.23;;;7.95;66.54
84841;BME280;75088;53.114;18.040;2024-03-29T01:13:14;99553.08;;;7.94;66.44
84841;BME280;75088;53.114;18.040;2024-03-29T01:14:21;99558.07;;;7.93;66.31
84841;BME280;75088;53.114;18.040;2024-03-29T01:15:27;99571.03;;;7.91;66.67
84841;BME280;75088;53.114;18.040;2024-03-29T01:16:33;99568.92;;;7.91;66.53
84841;BME280;75088;53.114;18.040;2024-03-29T01:17:41;99576.02;;;7.89;66.26
84841;BME280;75088;53.114;18.040;2024-03-29T01:18:47;99583.65;;;7.87;66.60
84841;BME280;75088;53.114;18.040;2024-03-29T01:19:53;99584.56;;;7.86;66.28
84841;BME280;75088;53.114;18.040;2024-03-29T01:21:00;99585.30;;;7.84;66.61
84841;BME280;75088;53.114;18.040;2024-03-29T01:22:06;99591.36;;;7.81;67.01
84841;BME280;75088;53.114;18.040;2024-03-29T01:23:14;99589.62;;;7.80;66.77
84841;BME280;75088;53.114;18.040;2024-03-29T01:24:20;99588.39;;;7.79;66.72
84841;BME280;75088;53.114;18.040;2024-03-29T01:25:26;99593.73;;;7.77;66.68
84841;BME280;75088;53.114;18.040;2024-03-29T01:26:34;99590.58;;;7.75;66.58
84841;BME280;75088;53.114;18.040;2024-03-29T01:27:40;99593.63;;;7.73;66.53
84841;BME280;75088;53.114;18.040;2024-03-29T01:28:47;99601.06;;;7.72;66.64
84841;BME280;75088;53.114;18.040;2024-03-29T01:29:53;99601.63;;;7.70;66.96
84841;BME280;75088;53.114;18.040;2024-03-29T01:30:59;99610.12;;;7.70;66.82
84841;BME280;75088;53.114;18.040;2024-03-29T01:32:06;99615.45;;;7.68;66.98
84841;BME280;75088;53.114;18.040;2024-03-29T01:33:12;99617.77;;;7.67;67.02
84841;BME280;75088;53.114;18.040;2024-03-29T01:34:19;99616.75;;;7.65;66.92
84841;BME280;75088;53.114;18.040;2024-03-29T01:35:25;99619.27;;;7.64;66.87
84841;BME280;75088;53.114;18.040;2024-03-29T01:36:32;99623.36;;;7.62;67.24
84841;BME280;75088;53.114;18.040;2024-03-29T01:37:38;99620.90;;;7.61;67.34
84841;BME280;75088;53.114;18.040;2024-03-29T01:38:46;99623.92;;;7.60;67.26
84841;BME280;75088;53.114;18.040;2024-03-29T01:39:54;99628.71;;;7.59;66.99
84841;BME280;75088;53.114;18.040;2024-03-29T01:41:00;99630.85;;;7.58;67.32
84841;BME280;75088;53.114;18.040;2024-03-29T01:42:07;99635.11;;;7.57;67.32
84841;BME280;75088;53.114;18.040;2024-03-29T01:43:14;99637.61;;;7.55;67.44
84841;BME280;75088;53.114;18.040;2024-03-29T01:44:20;99642.40;;;7.54;67.44
84841;BME280;75088;53.114;18.040;2024-03-29T01:45:27;99651.98;;;7.52;67.71
84841;BME280;75088;53.114;18.040;2024-03-29T01:46:36;99651.48;;;7.50;67.43
84841;BME280;75088;53.114;18.040;2024-03-29T01:47:43;99658.02;;;7.50;67.69
84841;BME280;75088;53.114;18.040;2024-03-29T01:48:49;99662.80;;;7.48;67.59
84841;BME280;75088;53.114;18.040;2024-03-29T01:49:56;99668.48;;;7.47;67.77
84841;BME280;75088;53.114;18.040;2024-03-29T01:51:04;99673.63;;;7.46;67.75
84841;BME280;75088;53.114;18.040;2024-03-29T01:52:10;99674.36;;;7.44;67.76
84841;BME280;75088;53.114;18.040;2024-03-29T01:53:19;99678.62;;;7.42;68.02
84841;BME280;75088;53.114;18.040;2024-03-29T01:54:26;99678.29;;;7.41;67.94
84841;BME280;75088;53.114;18.040;2024-03-29T01:55:32;99676.90;;;7.39;68.05
84841;BME280;75088;53.114;18.040;2024-03-29T01:56:38;99676.94;;;7.38;68.00
84841;BME280;75088;53.114;18.040;2024-03-29T01:57:46;99680.13;;;7.37;67.85
84841;BME280;75088;53.114;18.040;2024-03-29T01:58:52;99679.78;;;7.37;67.86
84841;BME280;75088;53.114;18.040;2024-03-29T02:00:01;99681.58;;;7.36;67.89
84841;BME280;75088;53.114;18.040;2024-03-29T02:01:11;99686.70;;;7.35;67.93
84841;BME280;75088;53.114;18.040;2024-03-29T02:02:17;99689.19;;;7.35;67.85
84841;BME280;75088;53.114;18.040;2024-03-29T02:03:24;99691.31;;;7.34;68.05
84841;BME280;75088;53.114;18.040;2024-03-29T02:04:31;99693.09;;;7.33;67.92
84841;BME280;75088;53.114;18.040;2024-03-29T02:05:38;99694.54;;;7.31;68.01
84841;BME280;75088;53.114;18.040;2024-03-29T02:06:44;99697.73;;;7.30;68.17
84841;BME280;75088;53.114;18.040;2024-03-29T02:07:51;99702.52;;;7.29;68.10
84841;BME280;75088;53.114;18.040;2024-03-29T02:08:58;99700.05;;;7.29;68.18
84841;BME280;75088;53.114;18.040;2024-03-29T02:10:06;99700.41;;;7.28;68.21
84841;BME280;75088;53.114;18.040;2024-03-29T02:11:17;99698.13;;;7.27;67.95
84841;BME280;75088;53.114;18.040;2024-03-29T02:12:23;99706.27;;;7.26;68.26
84841;BME280;75088;53.114;18.040;2024-03-29T02:13:29;99701.86;;;7.24;68.21
84841;BME280;75088;53.114;18.040;2024-03-29T02:14:37;99705.41;;;7.24;68.55
84841;BME280;75088;53.114;18.040;2024-03-29T02:15:44;99709.31;;;7.22;68.23
84841;BME280;75088;53.114;18.040;2024-03-29T02:16:51;99709.67;;;7.22;68.47
84841;BME280;75088;53.114;18.040;2024-03-29T02:17:57;99714.28;;;7.21;68.27
84841;BME280;75088;53.114;18.040;2024-03-29T02:19:03;99718.36;;;7.20;68.03
84841;BME280;75088;53.114;18.040;2024-03-29T02:20:14;99722.60;;;7.19;68.47
84841;BME280;75088;53.114;18.040;2024-03-29T02:21:21;99721.55;;;7.19;68.29
84841;BME280;75088;53.114;18.040;2024-03-29T02:22:28;99724.55;;;7.18;68.42
84841;BME280;75088;53.114;18.040;2024-03-29T02:23:40;99726.15;;;7.19;68.22
84841;BME280;75088;53.114;18.040;2024-03-29T02:24:49;99727.92;;;7.18;68.31
84841;BME280;75088;53.114;18.040;2024-03-29T02:25:55;99731.46;;;7.17;68.11
84841;BME280;75088;53.114;18.040;2024-03-29T02:27:02;99728.11;;;7.17;68.35
84841;BME280;75088;53.114;18.040;2024-03-29T02:28:08;99732.19;;;7.16;68.13
84841;BME280;75088;53.114;18.040;2024-03-29T02:29:15;99729.54;;;7.16;68.10
84841;BME280;75088;53.114;18.040;2024-03-29T02:30:22;99732.73;;;7.14;68.13
84841;BME280;75088;53.114;18.040;2024-03-29T02:31:28;99735.20;;;7.14;67.99
84841;BME280;75088;53.114;18.040;2024-03-29T02:32:34;99737.17;;;7.12;68.29
84841;BME280;75088;53.114;18.040;2024-03-29T02:33:40;99737.18;;;7.12;67.83
84841;BME280;75088;53.114;18.040;2024-03-29T02:34:49;99738.63;;;7.11;68.44
84841;BME280;75088;53.114;18.040;2024-03-29T02:35:56;99735.64;;;7.09;68.13
84841;BME280;75088;53.114;18.040;2024-03-29T02:37:03;99738.30;;;7.08;68.31
84841;BME280;75088;53.114;18.040;2024-03-29T02:38:10;99737.25;;;7.08;68.32
84841;BME280;75088;53.114;18.040;2024-03-29T02:39:16;99740.10;;;7.06;68.28
84841;BME280;75088;53.114;18.040;2024-03-29T02:40:22;99738.69;;;7.06;68.28
84841;BME280;75088;53.114;18.040;2024-03-29T02:41:28;99739.41;;;7.05;68.70
84841;BME280;75088;53.114;18.040;2024-03-29T02:42:35;99740.30;;;7.05;68.33
84841;BME280;75088;53.114;18.040;2024-03-29T02:43:45;99738.18;;;7.04;68.39
84841;BME280;75088;53.114;18.040;2024-03-29T02:44:51;99738.36;;;7.03;68.66
84841;BME280;75088;53.114;18.040;2024-03-29T02:45:57;99740.67;;;7.03;68.69
84841;BME280;75088;53.114;18.040;2024-03-29T02:47:04;99743.67;;;7.02;68.19
84841;BME280;75088;53.114;18.040;2024-03-29T02:48:10;99742.98;;;7.02;68.36
84841;BME280;75088;53.114;18.040;2024-03-29T02:49:19;99742.27;;;7.01;68.23
84841;BME280;75088;53.114;18.040;2024-03-29T02:50:25;99746.01;;;7.00;68.30
84841;BME280;75088;53.114;18.040;2024-03-29T02:51:31;99750.42;;;6.99;68.55
84841;BME280;75088;53.114;18.040;2024-03-29T02:52:37;99750.96;;;6.98;68.54
84841;BME280;75088;53.114;18.040;2024-03-29T02:53:46;99747.62;;;6.97;68.53
84841;BME280;75088;53.114;18.040;2024-03-29T02:54:52;99752.92;;;6.96;68.49
84841;BME280;75088;53.114;18.040;2024-03-29T02:55:59;99754.17;;;6.95;68.56
84841;BME280;75088;53.114;18.040;2024-03-29T02:57:05;99749.66;;;6.89;68.50
84841;BME280;75088;53.114;18.040;2024-03-29T02:58:12;99755.60;;;6.94;68.69
84841;BME280;75088;53.114;18.040;2024-03-29T02:59:18;99756.51;;;6.92;68.85
84841;BME280;75088;53.114;18.040;2024-03-29T03:00:24;99760.73;;;6.93;68.77
84841;BME280;75088;53.114;18.040;2024-03-29T03:01:31;99763.40;;;6.92;68.77
84841;BME280;75088;53.114;18.040;2024-03-29T03:02:39;99760.75;;;6.92;68.95
84841;BME280;75088;53.114;18.040;2024-03-29T03:03:46;99763.93;;;6.91;68.63
84841;BME280;75088;53.114;18.040;2024-03-29T03:04:53;99764.46;;;6.91;68.87
84841;BME280;75088;53.114;18.040;2024-03-29T03:05:59;99765.00;;;6.91;68.69
84841;BME280;75088;53.114;18.040;2024-03-29T03:07:05;99762.89;;;6.89;68.76
84841;BME280;75088;53.114;18.040;2024-03-29T03:08:28;99766.95;;;6.89;68.63
84841;BME280;75088;53.114;18.040;2024-03-29T03:09:52;99763.61;;;6.87;68.84
84841;BME280;75088;53.114;18.040;2024-03-29T03:11:17;99764.34;;;6.87;68.84
84841;BME280;75088;53.114;18.040;2024-03-29T03:12:23;99767.70;;;6.86;68.90
84841;BME280;75088;53.114;18.040;2024-03-29T03:13:30;99771.61;;;6.85;68.89
84841;BME280;75088;53.114;18.040;2024-03-29T03:14:36;99764.91;;;6.83;68.69
84841;BME280;75088;53.114;18.040;2024-03-29T03:15:42;99766.52;;;6.82;68.87
84841;BME280;75088;53.114;18.040;2024-03-29T03:16:49;99772.54;;;6.82;68.88
84841;BME280;75088;53.114;18.040;2024-03-29T03:17:55;99773.77;;;6.81;69.11
84841;BME280;75088;53.114;18.040;2024-03-29T03:19:01;99769.89;;;6.81;68.95
84841;BME280;75088;53.114;18.040;2024-03-29T03:20:09;99776.09;;;6.79;69.06
84841;BME280;75088;53.114;18.040;2024-03-29T03:21:18;99777.15;;;6.79;68.86
84841;BME280;75088;53.114;18.040;2024-03-29T03:22:25;99775.58;;;6.77;69.19
84841;BME280;75088;53.114;18.040;2024-03-29T03:23:31;99780.17;;;6.77;69.04
84841;BME280;75088;53.114;18.040;2024-03-29T03:24:38;99781.06;;;6.77;68.96
84841;BME280;75088;53.114;18.040;2024-03-29T03:25:44;99778.23;;;6.77;68.69
84841;BME280;75088;53.114;18.040;2024-03-29T03:26:50;99778.41;;;6.76;68.91
84841;BME280;75088;53.114;18.040;2024-03-29T03:27:56;99785.14;;;6.75;69.17
84841;BME280;75088;53.114;18.040;2024-03-29T03:29:02;99791.31;;;6.75;68.95
84841;BME280;75088;53.114;18.040;2024-03-29T03:30:11;99790.27;;;6.74;69.19
84841;BME280;75088;53.114;18.040;2024-03-29T03:31:17;99791.86;;;6.74;69.18
84841;BME280;75088;53.114;18.040;2024-03-29T03:32:24;99788.85;;;6.74;68.95
84841;BME280;75088;53.114;18.040;2024-03-29T03:33:30;99786.56;;;6.73;69.09
84841;BME280;75088;53.114;18.040;2024-03-29T03:34:37;99786.05;;;6.72;69.02
84841;BME280;75088;53.114;18.040;2024-03-29T03:35:44;99784.81;;;6.72;69.16
84841;BME280;75088;53.114;18.040;2024-03-29T03:36:50;99787.46;;;6.71;69.18
84841;BME280;75088;53.114;18.040;2024-03-29T03:37:56;99787.30;;;6.70;69.29
84841;BME280;75088;53.114;18.040;2024-03-29T03:39:03;99784.48;;;6.69;69.05
84841;BME280;75088;53.114;18.040;2024-03-29T03:40:10;99786.08;;;6.69;69.51
84841;BME280;75088;53.114;18.040;2024-03-29T03:41:17;99782.91;;;6.68;69.25
84841;BME280;75088;53.114;18.040;2024-03-29T03:42:23;99781.51;;;6.67;69.30
84841;BME280;75088;53.114;18.040;2024-03-29T03:43:29;99783.81;;;6.66;69.61
84841;BME280;75088;53.114;18.040;2024-03-29T03:44:35;99786.30;;;6.64;69.50
84841;BME280;75088;53.114;18.040;2024-03-29T03:45:42;99790.36;;;6.64;69.53
84841;BME280;75088;53.114;18.040;2024-03-29T03:46:49;99788.07;;;6.63;69.30
84841;BME280;75088;53.114;18.040;2024-03-29T03:47:55;99792.31;;;6.63;69.43
84841;BME280;75088;53.114;18.040;2024-03-29T03:49:02;99790.73;;;6.61;69.56
84841;BME280;75088;53.114;18.040;2024-03-29T03:50:09;99791.45;;;6.60;69.53
84841;BME280;75088;53.114;18.040;2024-03-29T03:51:16;99793.74;;;6.60;69.33
84841;BME280;75088;53.114;18.040;2024-03-29T03:52:22;99794.30;;;6.58;69.44
84841;BME280;75088;53.114;18.040;2024-03-29T03:53:28;99790.23;;;6.58;69.27
84841;BME280;75088;53.114;18.040;2024-03-29T03:54:35;99793.95;;;6.58;69.55
84841;BME280;75088;53.114;18.040;2024-03-29T03:55:41;99794.66;;;6.57;69.42
84841;BME280;75088;53.114;18.040;2024-03-29T03:56:51;99801.59;;;6.56;69.48
84841;BME280;75088;53.114;18.040;2024-03-29T03:57:57;99798.58;;;6.56;69.62
84841;BME280;75088;53.114;18.040;2024-03-29T03:59:03;99803.89;;;6.55;69.78
84841;BME280;75088;53.114;18.040;2024-03-29T04:00:13;99805.65;;;6.55;69.60
84841;BME280;75088;53.114;18.040;2024-03-29T04:01:22;99805.66;;;6.54;69.62
84841;BME280;75088;53.114;18.040;2024-03-29T04:02:28;99809.36;;;6.55;69.49
84841;BME280;75088;53.114;18.040;2024-03-29T04:03:34;99806.72;;;6.54;69.59
84841;BME280;75088;53.114;18.040;2024-03-29T04:04:40;99802.30;;;6.55;69.63
84841;BME280;75088;53.114;18.040;2024-03-29T04:05:47;99802.48;;;6.55;69.58
84841;BME280;75088;53.114;18.040;2024-03-29T04:06:53;99796.48;;;6.54;69.39
84841;BME280;75088;53.114;18.040;2024-03-29T04:07:59;99797.71;;;6.55;69.59
84841;BME280;75088;53.114;18.040;2024-03-29T04:09:09;99798.08;;;6.54;69.43
84841;BME280;75088;53.114;18.040;2024-03-29T04:10:16;99799.66;;;6.53;69.59
84841;BME280;75088;53.114;18.040;2024-03-29T04:11:22;99799.49;;;6.53;69.59
84841;BME280;75088;53.114;18.040;2024-03-29T04:12:28;99802.14;;;6.52;69.37
84841;BME280;75088;53.114;18.040;2024-03-29T04:13:34;99809.02;;;6.53;69.54
84841;BME280;75088;53.114;18.040;2024-03-29T04:14:41;99810.96;;;6.53;69.66
84841;BME280;75088;53.114;18.040;2024-03-29T04:15:47;99815.02;;;6.53;69.65
84841;BME280;75088;53.114;18.040;2024-03-29T04:16:54;99816.95;;;6.53;69.58
84841;BME280;75088;53.114;18.040;2024-03-29T04:18:01;99815.19;;;6.53;69.29
84841;BME280;75088;53.114;18.040;2024-03-29T04:19:07;99814.84;;;6.53;69.41
84841;BME280;75088;53.114;18.040;2024-03-29T04:20:14;99811.67;;;6.52;69.58
84841;BME280;75088;53.114;18.040;2024-03-29T04:21:20;99817.86;;;6.51;69.53
84841;BME280;75088;53.114;18.040;2024-03-29T04:22:28;99816.27;;;6.51;69.54
84841;BME280;75088;53.114;18.040;2024-03-29T04:23:36;99816.09;;;6.51;69.58
84841;BME280;75088;53.114;18.040;2024-03-29T04:24:42;99815.56;;;6.51;69.62
84841;BME280;75088;53.114;18.040;2024-03-29T04:25:53;99819.10;;;6.51;69.73
84841;BME280;75088;53.114;18.040;2024-03-29T04:27:00;99815.04;;;6.50;69.62
84841;BME280;75088;53.114;18.040;2024-03-29T04:28:06;99816.80;;;6.50;69.59
84841;BME280;75088;53.114;18.040;2024-03-29T04:29:12;99815.21;;;6.50;69.47
84841;BME280;75088;53.114;18.040;2024-03-29T04:30:19;99818.58;;;6.49;69.47
84841;BME280;75088;53.114;18.040;2024-03-29T04:31:25;99819.64;;;6.49;69.45
84841;BME280;75088;53.114;18.040;2024-03-29T04:32:32;99821.77;;;6.49;69.62
84841;BME280;75088;53.114;18.040;2024-03-29T04:33:38;99817.89;;;6.48;69.68
84841;BME280;75088;53.114;18.040;2024-03-29T04:34:47;99817.70;;;6.48;69.45
84841;BME280;75088;53.114;18.040;2024-03-29T04:35:56;99817.18;;;6.48;69.30
84841;BME280;75088;53.114;18.040;2024-03-29T04:37:03;99824.60;;;6.47;69.55
84841;BME280;75088;53.114;18.040;2024-03-29T04:38:09;99829.36;;;6.46;69.58
84841;BME280;75088;53.114;18.040;2024-03-29T04:39:16;99830.79;;;6.45;69.57
84841;BME280;75088;53.114;18.040;2024-03-29T04:40:22;99834.32;;;6.44;69.60
84841;BME280;75088;53.114;18.040;2024-03-29T04:41:28;99835.57;;;6.42;69.66
84841;BME280;75088;53.114;18.040;2024-03-29T04:42:39;99835.75;;;6.41;69.75
84841;BME280;75088;53.114;18.040;2024-03-29T04:43:45;99837.88;;;6.40;69.78
84841;BME280;75088;53.114;18.040;2024-03-29T04:44:52;99840.70;;;6.39;69.61
84841;BME280;75088;53.114;18.040;2024-03-29T04:46:08;99843.36;;;6.39;69.74
84841;BME280;75088;53.114;18.040;2024-03-29T04:47:15;99840.02;;;6.37;69.61
84841;BME280;75088;53.114;18.040;2024-03-29T04:48:22;99845.14;;;6.36;69.71
84841;BME280;75088;53.114;18.040;2024-03-29T04:49:28;99845.50;;;6.36;69.60
84841;BME280;75088;53.114;18.040;2024-03-29T04:50:38;99844.27;;;6.34;69.77
84841;BME280;75088;53.114;18.040;2024-03-29T04:51:45;99841.63;;;6.34;69.94
84841;BME280;75088;53.114;18.040;2024-03-29T04:52:51;99843.05;;;6.33;69.90
84841;BME280;75088;53.114;18.040;2024-03-29T04:53:58;99838.81;;;6.32;69.77
84841;BME280;75088;53.114;18.040;2024-03-29T04:55:05;99841.98;;;6.32;69.82
84841;BME280;75088;53.114;18.040;2024-03-29T04:56:11;99843.59;;;6.31;70.11
84841;BME280;75088;53.114;18.040;2024-03-29T04:57:18;99844.99;;;6.31;69.98
84841;BME280;75088;53.114;18.040;2024-03-29T04:58:25;99842.00;;;6.31;70.05
84841;BME280;75088;53.114;18.040;2024-03-29T04:59:32;99843.41;;;6.31;70.24
84841;BME280;75088;53.114;18.040;2024-03-29T05:00:38;99840.61;;;6.29;70.09
84841;BME280;75088;53.114;18.040;2024-03-29T05:01:44;99843.95;;;6.30;69.85
84841;BME280;75088;53.114;18.040;2024-03-29T05:02:55;99848.70;;;6.31;69.94
84841;BME280;75088;53.114;18.040;2024-03-29T05:04:01;99853.64;;;6.32;69.89
84841;BME280;75088;53.114;18.040;2024-03-29T05:05:08;99852.92;;;6.32;69.94
84841;BME280;75088;53.114;18.040;2024-03-29T05:06:14;99854.88;;;6.32;70.56
84841;BME280;75088;53.114;18.040;2024-03-29T05:07:22;99862.11;;;6.31;70.47
84841;BME280;75088;53.114;18.040;2024-03-29T05:08:29;99864.23;;;6.31;70.32
84841;BME280;75088;53.114;18.040;2024-03-29T05:09:35;99858.58;;;6.32;70.30
84841;BME280;75088;53.114;18.040;2024-03-29T05:10:42;99849.92;;;6.33;70.29
84841;BME280;75088;53.114;18.040;2024-03-29T05:11:50;99844.80;;;6.34;70.39
84841;BME280;75088;53.114;18.040;2024-03-29T05:12:56;99842.69;;;6.34;70.44
84841;BME280;75088;53.114;18.040;2024-03-29T05:14:03;99846.39;;;6.34;70.06
84841;BME280;75088;53.114;18.040;2024-03-29T05:15:10;99849.56;;;6.34;70.17
84841;BME280;75088;53.114;18.040;2024-03-29T05:16:16;99854.49;;;6.35;70.40
84841;BME280;75088;53.114;18.040;2024-03-29T05:17:23;99856.61;;;6.36;70.51
84841;BME280;75088;53.114;18.040;2024-03-29T05:18:31;99862.07;;;6.38;70.61
84841;BME280;75088;53.114;18.040;2024-03-29T05:19:38;99866.11;;;6.39;70.41
84841;BME280;75088;53.114;18.040;2024-03-29T05:20:44;99868.92;;;6.41;70.32
84841;BME280;75088;53.114;18.040;2024-03-29T05:21:55;99867.15;;;6.42;70.48
84841;BME280;75088;53.114;18.040;2024-03-29T05:23:01;99861.15;;;6.43;70.53
84841;BME280;75088;53.114;18.040;2024-03-29T05:24:08;99857.78;;;6.45;70.41
84841;BME280;75088;53.114;18.040;2024-03-29T05:25:14;99850.00;;;6.47;70.07
84841;BME280;75088;53.114;18.040;2024-03-29T05:26:21;99848.05;;;6.48;70.31
84841;BME280;75088;53.114;18.040;2024-03-29T05:27:28;99842.23;;;6.49;70.48
84841;BME280;75088;53.114;18.040;2024-03-29T05:28:34;99843.80;;;6.50;70.44
84841;BME280;75088;53.114;18.040;2024-03-29T05:29:41;99842.91;;;6.51;70.24
84841;BME280;75088;53.114;18.040;2024-03-29T05:30:47;99843.77;;;6.54;70.76
84841;BME280;75088;53.114;18.040;2024-03-29T05:31:54;99836.88;;;6.55;70.65
84841;BME280;75088;53.114;18.040;2024-03-29T05:33:00;99836.85;;;6.57;70.35
84841;BME280;75088;53.114;18.040;2024-03-29T05:34:06;99844.23;;;6.58;70.33
84841;BME280;75088;53.114;18.040;2024-03-29T05:35:12;99841.76;;;6.60;70.39
84841;BME280;75088;53.114;18.040;2024-03-29T05:36:20;99848.27;;;6.62;70.37
84841;BME280;75088;53.114;18.040;2024-03-29T05:37:27;99845.77;;;6.64;70.25
84841;BME280;75088;53.114;18.040;2024-03-29T05:38:33;99849.46;;;6.67;70.34
84841;BME280;75088;53.114;18.040;2024-03-29T05:39:40;99852.98;;;6.69;70.27
84841;BME280;75088;53.114;18.040;2024-03-29T05:40:49;99860.55;;;6.70;70.30
84841;BME280;75088;53.114;18.040;2024-03-29T05:41:55;99865.66;;;6.72;70.52
84841;BME280;75088;53.114;18.040;2024-03-29T05:43:01;99863.34;;;6.74;70.51
84841;BME280;75088;53.114;18.040;2024-03-29T05:44:08;99864.91;;;6.77;70.42
84841;BME280;75088;53.114;18.040;2024-03-29T05:45:25;99863.30;;;6.80;70.40
84841;BME280;75088;53.114;18.040;2024-03-29T05:46:32;99864.33;;;6.83;70.33
84841;BME280;75088;53.114;18.040;2024-03-29T05:47:40;99870.27;;;6.86;70.35
84841;BME280;75088;53.114;18.040;2024-03-29T05:48:49;99870.08;;;6.89;70.11
84841;BME280;75088;53.114;18.040;2024-03-29T05:49:55;99871.48;;;6.91;70.48
84841;BME280;75088;53.114;18.040;2024-03-29T05:51:01;99868.83;;;6.91;70.15
84841;BME280;75088;53.114;18.040;2024-03-29T05:52:08;99875.65;;;6.97;70.11
84841;BME280;75088;53.114;18.040;2024-03-29T05:53:14;99875.63;;;7.00;69.84
84841;BME280;75088;53.114;18.040;2024-03-29T05:54:20;99880.55;;;7.02;69.97
84841;BME280;75088;53.114;18.040;2024-03-29T05:55:27;99888.65;;;7.06;70.36